Athol Springs, NY

7:37 AM EDT on July 07, 2015 (GMT -0400)
Hamburg | | Change Station
CLOSE
Current Station
Personal Weather Station
Location: Hamburg, NY
Elevation: 594 ft
Nearby Weather Stations

Elev 594 ft 42.76 °N, 78.88 °W | Updated 10 minutes ago

Partly Cloudy
Partly Cloudy
73.4 °F
Feels Like 73 °F
N
5.0
Wind Variable Wind from SSW
Gusts 10.0 mph

Today
High -- | Low -- °F
--% Chance of Precip.
Yesterday
High -- | Low -- °F
Precip. -- in
5:44 AM 8:56 PM
Waning Gibbous, 65% visible
Pressure 29.94 in
Visibility 10.0 miles
Clouds Few 4500 ft
Mostly Cloudy 25000 ft
Heat Index 73 °F
Dew Point 69 °F
Humidity 85%
Rainfall 0.00 in
Snow Depth Not available.
UV 0 out of 12
Pollen 3.00 out of 12
Air Quality Not available.
Flu Activity Not available.
METAR KBUF 071054Z 20008KT 10SM FEW045 BKN250 22/19 A2994 RMK AO2 SLP136 T02170194

More Conditions Fewer Conditions

Pressure 29.94 in
Visibility 10.0 miles
Clouds Few 4500 ft
Mostly Cloudy 25000 ft
Heat Index 73 °F
Dew Point 69 °F
Humidity 85%
Rainfall 0.00 in
Snow Depth Not available.
UV 0 out of 12
Pollen 3.00 out of 12
Air Quality Not available.
Flu Activity Not available.
METAR KBUF 071054Z 20008KT 10SM FEW045 BKN250 22/19 A2994 RMK AO2 SLP136 T02170194

More Conditions Fewer Conditions

10-Day Weather Forecast

×

Almanac

Astronomy

Jul. 07, 2015 Rise Set
Actual Time
Civil Twilight
Nautical Twilight
Astronomical Twilight
Moon
Length of Visible Light
Length of Day
Tomorrow will be .
, % of the Moon is Illuminated

Today's Extremes

State Highs State Lows

Community

WunderPhotos

Upload Photos

1,835,768 photos uploaded!

WunderBlogs® & News

Nearby

Air Quality

  Air Quality AQ Index Pollutant
Not available.

Snow Depth

Station Depth Elevation

Earthquake Activity

City Distance Mag. Time & Date
Minimum magnitude displayed is 2.5.

Coastal Water Temperatures

Place Temperature

Stations

Nearby Weather Stations

Station Location Temp. Windchill Dew Point Humidity Wind Precip. Elev Updated Type